sensor_id;sensor_type;location;lat;lon;timestamp;temperature;humidity
44305;DHT22;30019;50.576;8.568;2023-02-19T00:00:55;8.50;99.90
44305;DHT22;30019;50.576;8.568;2023-02-19T00:03:21;8.50;99.90
44305;DHT22;30019;50.576;8.568;2023-02-19T00:05:46;8.50;99.90
44305;DHT22;30019;50.576;8.568;2023-02-19T00:08:12;8.50;99.90
44305;DHT22;30019;50.576;8.568;2023-02-19T00:10:38;8.50;99.90
44305;DHT22;30019;50.576;8.568;2023-02-19T00:13:03;8.50;99.90
44305;DHT22;30019;50.576;8.568;2023-02-19T00:15:31;8.50;99.90
44305;DHT22;30019;50.576;8.568;2023-02-19T00:17:57;8.50;99.90
44305;DHT22;30019;50.576;8.568;2023-02-19T00:20:23;8.50;99.90
44305;DHT22;30019;50.576;8.568;2023-02-19T00:22:48;8.50;99.90
44305;DHT22;30019;50.576;8.568;2023-02-19T00:25:14;8.50;99.90
44305;DHT22;30019;50.576;8.568;2023-02-19T00:27:39;8.50;99.90
44305;DHT22;30019;50.576;8.568;2023-02-19T00:30:05;8.50;99.90
44305;DHT22;30019;50.576;8.568;2023-02-19T00:32:31;8.50;99.90
44305;DHT22;30019;50.576;8.568;2023-02-19T00:34:56;8.50;99.90
44305;DHT22;30019;50.576;8.568;2023-02-19T00:37:22;8.50;99.90
44305;DHT22;30019;50.576;8.568;2023-02-19T00:39:47;8.50;99.90
44305;DHT22;30019;50.576;8.568;2023-02-19T00:42:13;8.50;99.90
44305;DHT22;30019;50.576;8.568;2023-02-19T00:44:38;8.50;99.90
44305;DHT22;30019;50.576;8.568;2023-02-19T00:47:04;8.50;99.90
44305;DHT22;30019;50.576;8.568;2023-02-19T00:49:30;8.50;99.90
44305;DHT22;30019;50.576;8.568;2023-02-19T00:51:56;8.50;99.90
44305;DHT22;30019;50.576;8.568;2023-02-19T00:54:22;8.50;99.90
44305;DHT22;30019;50.576;8.568;2023-02-19T00:56:48;8.50;99.90
44305;DHT22;30019;50.576;8.568;2023-02-19T00:59:14;8.50;99.90
44305;DHT22;30019;50.576;8.568;2023-02-19T01:01:41;8.60;99.90
44305;DHT22;30019;50.576;8.568;2023-02-19T01:04:07;8.60;99.90
44305;DHT22;30019;50.576;8.568;2023-02-19T01:06:32;8.60;99.90
44305;DHT22;30019;50.576;8.568;2023-02-19T01:08:59;8.50;99.90
44305;DHT22;30019;50.576;8.568;2023-02-19T01:11:24;8.60;99.90
44305;DHT22;30019;50.576;8.568;2023-02-19T01:13:50;8.60;99.90
44305;DHT22;30019;50.576;8.568;2023-02-19T01:16:20;8.60;99.90
44305;DHT22;30019;50.576;8.568;2023-02-19T01:18:48;8.60;99.90
44305;DHT22;30019;50.576;8.568;2023-02-19T01:21:16;8.60;99.90
44305;DHT22;30019;50.576;8.568;2023-02-19T01:23:42;8.60;99.90
44305;DHT22;30019;50.576;8.568;2023-02-19T01:26:14;8.70;99.90
44305;DHT22;30019;50.576;8.568;2023-02-19T01:28:40;8.60;99.90
44305;DHT22;30019;50.576;8.568;2023-02-19T01:31:07;8.60;99.90
44305;DHT22;30019;50.576;8.568;2023-02-19T01:33:35;8.50;99.90
44305;DHT22;30019;50.576;8.568;2023-02-19T01:36:02;8.50;99.90
44305;DHT22;30019;50.576;8.568;2023-02-19T01:38:28;8.60;99.90
44305;DHT22;30019;50.576;8.568;2023-02-19T01:40:59;8.60;99.90
44305;DHT22;30019;50.576;8.568;2023-02-19T01:43:25;8.50;99.90
44305;DHT22;30019;50.576;8.568;2023-02-19T01:45:51;8.50;99.90
44305;DHT22;30019;50.576;8.568;2023-02-19T01:48:22;8.50;99.90
44305;DHT22;30019;50.576;8.568;2023-02-19T01:51:09;8.50;99.90
44305;DHT22;30019;50.576;8.568;2023-02-19T01:53:42;8.50;99.90
44305;DHT22;30019;50.576;8.568;2023-02-19T01:56:09;8.60;99.90
44305;DHT22;30019;50.576;8.568;2023-02-19T01:58:38;8.60;99.90
44305;DHT22;30019;50.576;8.568;2023-02-19T02:01:06;8.50;99.90
44305;DHT22;30019;50.576;8.568;2023-02-19T02:03:34;8.50;99.90
44305;DHT22;30019;50.576;8.568;2023-02-19T02:06:08;8.60;99.90
44305;DHT22;30019;50.576;8.568;2023-02-19T02:08:36;8.60;99.90
44305;DHT22;30019;50.576;8.568;2023-02-19T02:11:20;8.60;99.90
44305;DHT22;30019;50.576;8.568;2023-02-19T02:13:47;8.60;99.90
44305;DHT22;30019;50.576;8.568;2023-02-19T02:21:55;8.60;99.90
44305;DHT22;30019;50.576;8.568;2023-02-19T02:35:52;8.70;99.90
44305;DHT22;30019;50.576;8.568;2023-02-19T02:38:22;8.70;99.90
44305;DHT22;30019;50.576;8.568;2023-02-19T02:40:50;8.60;99.90
44305;DHT22;30019;50.576;8.568;2023-02-19T02:43:16;8.60;99.90
44305;DHT22;30019;50.576;8.568;2023-02-19T02:45:42;8.50;99.90
44305;DHT22;30019;50.576;8.568;2023-02-19T02:48:24;8.50;99.90
44305;DHT22;30019;50.576;8.568;2023-02-19T02:53:47;8.60;99.90
44305;DHT22;30019;50.576;8.568;2023-02-19T02:56:33;8.60;99.90
44305;DHT22;30019;50.576;8.568;2023-02-19T02:59:01;8.50;99.90
44305;DHT22;30019;50.576;8.568;2023-02-19T03:10:16;8.50;99.90
44305;DHT22;30019;50.576;8.568;2023-02-19T03:12:44;8.50;99.90
44305;DHT22;30019;50.576;8.568;2023-02-19T03:15:33;8.50;99.90
44305;DHT22;30019;50.576;8.568;2023-02-19T03:18:22;8.50;99.90
44305;DHT22;30019;50.576;8.568;2023-02-19T03:21:06;8.60;99.90
44305;DHT22;30019;50.576;8.568;2023-02-19T03:23:33;8.50;99.90
44305;DHT22;30019;50.576;8.568;2023-02-19T03:26:18;8.60;99.90
44305;DHT22;30019;50.576;8.568;2023-02-19T03:28:46;8.60;99.90
44305;DHT22;30019;50.576;8.568;2023-02-19T03:31:32;8.60;99.90
44305;DHT22;30019;50.576;8.568;2023-02-19T03:34:01;8.60;99.90
44305;DHT22;30019;50.576;8.568;2023-02-19T03:36:35;8.60;99.90
44305;DHT22;30019;50.576;8.568;2023-02-19T03:39:07;8.60;99.90
44305;DHT22;30019;50.576;8.568;2023-02-19T03:41:52;8.60;99.90
44305;DHT22;30019;50.576;8.568;2023-02-19T03:55:22;8.70;99.90
44305;DHT22;30019;50.576;8.568;2023-02-19T03:58:07;8.70;99.90
44305;DHT22;30019;50.576;8.568;2023-02-19T04:00:52;8.70;99.90
44305;DHT22;30019;50.576;8.568;2023-02-19T04:03:28;8.70;99.90
44305;DHT22;30019;50.576;8.568;2023-02-19T04:06:03;8.70;99.90
44305;DHT22;30019;50.576;8.568;2023-02-19T04:08:31;8.70;99.90
44305;DHT22;30019;50.576;8.568;2023-02-19T04:10:59;8.60;99.90
44305;DHT22;30019;50.576;8.568;2023-02-19T04:13:33;8.60;99.90
44305;DHT22;30019;50.576;8.568;2023-02-19T04:16:05;8.60;99.90
44305;DHT22;30019;50.576;8.568;2023-02-19T04:18:35;8.70;99.90
44305;DHT22;30019;50.576;8.568;2023-02-19T04:21:03;8.60;99.90
44305;DHT22;30019;50.576;8.568;2023-02-19T04:23:33;8.60;99.90
44305;DHT22;30019;50.576;8.568;2023-02-19T04:26:00;8.60;99.90
44305;DHT22;30019;50.576;8.568;2023-02-19T04:28:28;8.60;99.90
44305;DHT22;30019;50.576;8.568;2023-02-19T04:30:53;8.50;99.90
44305;DHT22;30019;50.576;8.568;2023-02-19T04:33:19;8.50;99.90
44305;DHT22;30019;50.576;8.568;2023-02-19T04:35:44;8.60;99.90
44305;DHT22;30019;50.576;8.568;2023-02-19T04:38:10;8.60;99.90
44305;DHT22;30019;50.576;8.568;2023-02-19T04:40:36;8.60;99.90
44305;DHT22;30019;50.576;8.568;2023-02-19T04:43:02;8.60;99.90
44305;DHT22;30019;50.576;8.568;2023-02-19T04:45:27;8.50;99.90
44305;DHT22;30019;50.576;8.568;2023-02-19T04:47:53;8.50;99.90
44305;DHT22;30019;50.576;8.568;2023-02-19T04:50:19;8.50;99.90
44305;DHT22;30019;50.576;8.568;2023-02-19T04:52:44;8.40;99.90
44305;DHT22;30019;50.576;8.568;2023-02-19T04:55:10;8.50;99.90
44305;DHT22;30019;50.576;8.568;2023-02-19T04:57:35;8.50;99.90
44305;DHT22;30019;50.576;8.568;2023-02-19T05:00:02;8.50;99.90
44305;DHT22;30019;50.576;8.568;2023-02-19T05:02:29;8.50;99.90
44305;DHT22;30019;50.576;8.568;2023-02-19T05:04:54;8.50;99.90
44305;DHT22;30019;50.576;8.568;2023-02-19T05:07:20;8.50;99.90
44305;DHT22;30019;50.576;8.568;2023-02-19T05:09:45;8.50;99.90
44305;DHT22;30019;50.576;8.568;2023-02-19T05:12:11;8.60;99.90
44305;DHT22;30019;50.576;8.568;2023-02-19T05:14:36;8.50;99.90
44305;DHT22;30019;50.576;8.568;2023-02-19T05:17:02;8.60;99.90
44305;DHT22;30019;50.576;8.568;2023-02-19T05:19:27;8.50;99.90
44305;DHT22;30019;50.576;8.568;2023-02-19T05:21:53;8.50;99.90
44305;DHT22;30019;50.576;8.568;2023-02-19T05:24:18;8.50;99.90
44305;DHT22;30019;50.576;8.568;2023-02-19T05:26:44;8.50;99.90
44305;DHT22;30019;50.576;8.568;2023-02-19T05:29:10;8.50;99.90
44305;DHT22;30019;50.576;8.568;2023-02-19T05:31:35;8.50;99.90
44305;DHT22;30019;50.576;8.568;2023-02-19T05:34:01;8.50;99.90
44305;DHT22;30019;50.576;8.568;2023-02-19T05:36:26;8.50;99.90
44305;DHT22;30019;50.576;8.568;2023-02-19T05:38:56;8.50;99.90
44305;DHT22;30019;50.576;8.568;2023-02-19T05:41:24;8.50;99.90
44305;DHT22;30019;50.576;8.568;2023-02-19T05:43:51;8.50;99.90
44305;DHT22;30019;50.576;8.568;2023-02-19T05:46:18;8.40;99.90
44305;DHT22;30019;50.576;8.568;2023-02-19T05:48:45;8.40;99.90
44305;DHT22;30019;50.576;8.568;2023-02-19T05:51:13;8.40;99.90
44305;DHT22;30019;50.576;8.568;2023-02-19T05:53:40;8.40;99.90
44305;DHT22;30019;50.576;8.568;2023-02-19T05:56:34;8.40;99.90
44305;DHT22;30019;50.576;8.568;2023-02-19T05:59:02;8.40;99.90
44305;DHT22;30019;50.576;8.568;2023-02-19T06:01:29;8.40;99.90
44305;DHT22;30019;50.576;8.568;2023-02-19T06:03:56;8.40;99.90
44305;DHT22;30019;50.576;8.568;2023-02-19T06:06:22;8.40;99.90
44305;DHT22;30019;50.576;8.568;2023-02-19T06:08:49;8.40;99.90
44305;DHT22;30019;50.576;8.568;2023-02-19T06:11:15;8.50;99.90
44305;DHT22;30019;50.576;8.568;2023-02-19T06:13:41;8.50;99.90
44305;DHT22;30019;50.576;8.568;2023-02-19T06:16:07;8.50;99.90
44305;DHT22;30019;50.576;8.568;2023-02-19T06:18:33;8.50;99.90
44305;DHT22;30019;50.576;8.568;2023-02-19T06:21:07;8.50;99.90
44305;DHT22;30019;50.576;8.568;2023-02-19T06:23:33;8.50;99.90
44305;DHT22;30019;50.576;8.568;2023-02-19T06:26:17;8.50;99.90
44305;DHT22;30019;50.576;8.568;2023-02-19T06:28:44;8.50;99.90
44305;DHT22;30019;50.576;8.568;2023-02-19T06:31:10;8.60;99.90
44305;DHT22;30019;50.576;8.568;2023-02-19T06:33:37;8.70;99.90
44305;DHT22;30019;50.576;8.568;2023-02-19T06:36:06;8.70;99.90
44305;DHT22;30019;50.576;8.568;2023-02-19T06:38:32;8.70;99.90
44305;DHT22;30019;50.576;8.568;2023-02-19T06:41:02;8.70;99.90
44305;DHT22;30019;50.576;8.568;2023-02-19T06:43:28;8.70;99.90
44305;DHT22;30019;50.576;8.568;2023-02-19T06:45:56;8.60;99.90
44305;DHT22;30019;50.576;8.568;2023-02-19T06:48:21;8.70;99.90
44305;DHT22;30019;50.576;8.568;2023-02-19T06:50:47;8.60;99.90
44305;DHT22;30019;50.576;8.568;2023-02-19T06:53:12;8.70;99.90
44305;DHT22;30019;50.576;8.568;2023-02-19T06:55:38;8.70;99.90
44305;DHT22;30019;50.576;8.568;2023-02-19T06:58:05;8.70;99.90
44305;DHT22;30019;50.576;8.568;2023-02-19T07:00:32;8.70;99.90
44305;DHT22;30019;50.576;8.568;2023-02-19T07:02:57;8.70;99.90
44305;DHT22;30019;50.576;8.568;2023-02-19T07:05:23;8.70;99.90
44305;DHT22;30019;50.576;8.568;2023-02-19T07:07:48;8.70;99.90
44305;DHT22;30019;50.576;8.568;2023-02-19T07:10:15;8.70;99.90
44305;DHT22;30019;50.576;8.568;2023-02-19T07:12:41;8.70;99.90
44305;DHT22;30019;50.576;8.568;2023-02-19T07:15:07;8.70;99.90
44305;DHT22;30019;50.576;8.568;2023-02-19T07:17:35;8.70;99.90
44305;DHT22;30019;50.576;8.568;2023-02-19T07:20:01;8.70;99.90
44305;DHT22;30019;50.576;8.568;2023-02-19T07:22:26;8.70;99.90
44305;DHT22;30019;50.576;8.568;2023-02-19T07:24:52;8.70;99.90
44305;DHT22;30019;50.576;8.568;2023-02-19T07:27:18;8.70;99.90
44305;DHT22;30019;50.576;8.568;2023-02-19T07:29:43;8.70;99.90
44305;DHT22;30019;50.576;8.568;2023-02-19T07:32:09;8.70;99.90
44305;DHT22;30019;50.576;8.568;2023-02-19T07:34:34;8.70;99.90
44305;DHT22;30019;50.576;8.568;2023-02-19T07:37:00;8.70;99.90
44305;DHT22;30019;50.576;8.568;2023-02-19T07:39:25;8.70;99.90
44305;DHT22;30019;50.576;8.568;2023-02-19T07:41:51;8.70;99.90
44305;DHT22;30019;50.576;8.568;2023-02-19T07:44:16;8.70;99.90
44305;DHT22;30019;50.576;8.568;2023-02-19T07:46:42;8.70;99.90
44305;DHT22;30019;50.576;8.568;2023-02-19T07:49:08;8.70;99.90
44305;DHT22;30019;50.576;8.568;2023-02-19T07:51:34;8.80;99.90
44305;DHT22;30019;50.576;8.568;2023-02-19T07:54:00;8.80;99.90
44305;DHT22;30019;50.576;8.568;2023-02-19T07:56:25;8.80;99.90
44305;DHT22;30019;50.576;8.568;2023-02-19T07:58:53;8.80;99.90
44305;DHT22;30019;50.576;8.568;2023-02-19T08:01:20;8.80;99.90
44305;DHT22;30019;50.576;8.568;2023-02-19T08:04:11;8.90;99.90
44305;DHT22;30019;50.576;8.568;2023-02-19T08:06:37;8.90;99.90
44305;DHT22;30019;50.576;8.568;2023-02-19T08:09:04;8.80;99.90
44305;DHT22;30019;50.576;8.568;2023-02-19T08:11:30;8.80;99.90
44305;DHT22;30019;50.576;8.568;2023-02-19T08:14:14;8.80;99.90
44305;DHT22;30019;50.576;8.568;2023-02-19T08:16:50;8.80;99.90
44305;DHT22;30019;50.576;8.568;2023-02-19T08:19:16;8.80;99.90
44305;DHT22;30019;50.576;8.568;2023-02-19T08:21:41;8.80;99.90
44305;DHT22;30019;50.576;8.568;2023-02-19T08:24:07;8.80;99.90
44305;DHT22;30019;50.576;8.568;2023-02-19T08:26:33;8.80;99.90
44305;DHT22;30019;50.576;8.568;2023-02-19T08:28:58;8.80;99.90
44305;DHT22;30019;50.576;8.568;2023-02-19T08:31:24;8.80;99.90
44305;DHT22;30019;50.576;8.568;2023-02-19T08:33:50;8.90;99.90
44305;DHT22;30019;50.576;8.568;2023-02-19T08:36:17;8.90;99.90
44305;DHT22;30019;50.576;8.568;2023-02-19T08:38:42;8.80;99.90
44305;DHT22;30019;50.576;8.568;2023-02-19T08:41:10;8.80;99.90
44305;DHT22;30019;50.576;8.568;2023-02-19T08:43:36;8.70;99.90
44305;DHT22;30019;50.576;8.568;2023-02-19T08:46:03;8.70;99.90
44305;DHT22;30019;50.576;8.568;2023-02-19T08:48:29;8.70;99.90
44305;DHT22;30019;50.576;8.568;2023-02-19T08:50:56;8.70;99.90
44305;DHT22;30019;50.576;8.568;2023-02-19T08:53:23;8.70;99.90
44305;DHT22;30019;50.576;8.568;2023-02-19T08:55:49;8.80;99.90
44305;DHT22;30019;50.576;8.568;2023-02-19T08:58:14;8.80;99.90
44305;DHT22;30019;50.576;8.568;2023-02-19T09:00:40;8.80;99.90
44305;DHT22;30019;50.576;8.568;2023-02-19T09:03:05;8.80;99.90
44305;DHT22;30019;50.576;8.568;2023-02-19T09:05:31;8.80;99.90
44305;DHT22;30019;50.576;8.568;2023-02-19T09:07:57;8.80;99.90
44305;DHT22;30019;50.576;8.568;2023-02-19T09:10:22;8.80;99.90
44305;DHT22;30019;50.576;8.568;2023-02-19T09:12:48;8.80;99.90
44305;DHT22;30019;50.576;8.568;2023-02-19T09:15:13;8.80;99.90
44305;DHT22;30019;50.576;8.568;2023-02-19T09:17:39;8.90;99.90
44305;DHT22;30019;50.576;8.568;2023-02-19T09:20:05;8.90;99.90
44305;DHT22;30019;50.576;8.568;2023-02-19T09:22:30;8.90;99.90
44305;DHT22;30019;50.576;8.568;2023-02-19T09:24:56;8.90;99.90
44305;DHT22;30019;50.576;8.568;2023-02-19T09:27:21;8.90;99.90
44305;DHT22;30019;50.576;8.568;2023-02-19T09:29:47;8.90;99.90
44305;DHT22;30019;50.576;8.568;2023-02-19T09:32:13;8.90;99.90
44305;DHT22;30019;50.576;8.568;2023-02-19T09:34:39;9.00;99.90
44305;DHT22;30019;50.576;8.568;2023-02-19T09:37:05;9.00;99.90
44305;DHT22;30019;50.576;8.568;2023-02-19T09:39:31;9.10;99.90
44305;DHT22;30019;50.576;8.568;2023-02-19T09:44:32;9.40;99.90
44305;DHT22;30019;50.576;8.568;2023-02-19T09:47:00;9.60;99.90
44305;DHT22;30019;50.576;8.568;2023-02-19T09:49:38;9.60;99.90
44305;DHT22;30019;50.576;8.568;2023-02-19T09:54:49;9.40;99.90
44305;DHT22;30019;50.576;8.568;2023-02-19T09:57:18;9.40;99.90
44305;DHT22;30019;50.576;8.568;2023-02-19T09:59:48;9.30;99.90
44305;DHT22;30019;50.576;8.568;2023-02-19T10:02:22;9.30;99.90
44305;DHT22;30019;50.576;8.568;2023-02-19T10:04:49;9.20;99.90
44305;DHT22;30019;50.576;8.568;2023-02-19T10:07:18;9.20;99.90
44305;DHT22;30019;50.576;8.568;2023-02-19T10:09:50;9.20;99.90
44305;DHT22;30019;50.576;8.568;2023-02-19T10:12:28;9.20;99.90
44305;DHT22;30019;50.576;8.568;2023-02-19T10:15:00;9.40;99.90
44305;DHT22;30019;50.576;8.568;2023-02-19T10:17:31;9.40;99.90
44305;DHT22;30019;50.576;8.568;2023-02-19T10:19:59;9.40;99.90
44305;DHT22;30019;50.576;8.568;2023-02-19T10:22:28;9.40;99.90
44305;DHT22;30019;50.576;8.568;2023-02-19T10:24:55;9.30;99.90
44305;DHT22;30019;50.576;8.568;2023-02-19T10:27:21;9.30;99.90
44305;DHT22;30019;50.576;8.568;2023-02-19T10:29:48;9.30;99.90
44305;DHT22;30019;50.576;8.568;2023-02-19T10:32:18;9.30;99.90
44305;DHT22;30019;50.576;8.568;2023-02-19T10:37:33;9.50;99.90
44305;DHT22;30019;50.576;8.568;2023-02-19T10:39:59;9.50;99.90
44305;DHT22;30019;50.576;8.568;2023-02-19T10:42:25;9.50;99.90
44305;DHT22;30019;50.576;8.568;2023-02-19T10:44:57;9.50;99.90
44305;DHT22;30019;50.576;8.568;2023-02-19T10:47:27;9.60;99.90
44305;DHT22;30019;50.576;8.568;2023-02-19T10:49:56;9.60;99.90
44305;DHT22;30019;50.576;8.568;2023-02-19T10:52:31;9.70;99.90
44305;DHT22;30019;50.576;8.568;2023-02-19T10:55:15;9.60;99.90
44305;DHT22;30019;50.576;8.568;2023-02-19T10:57:41;9.50;99.90
44305;DHT22;30019;50.576;8.568;2023-02-19T11:00:42;9.30;99.90
44305;DHT22;30019;50.576;8.568;2023-02-19T11:05:38;8.90;99.90
44305;DHT22;30019;50.576;8.568;2023-02-19T11:08:22;8.90;99.90
44305;DHT22;30019;50.576;8.568;2023-02-19T11:10:48;8.90;99.90
44305;DHT22;30019;50.576;8.568;2023-02-19T11:13:17;9.00;99.90
44305;DHT22;30019;50.576;8.568;2023-02-19T11:15:50;9.00;99.90
44305;DHT22;30019;50.576;8.568;2023-02-19T11:18:22;9.30;99.90
44305;DHT22;30019;50.576;8.568;2023-02-19T11:20:52;9.70;99.90
44305;DHT22;30019;50.576;8.568;2023-02-19T11:23:34;9.90;99.90
44305;DHT22;30019;50.576;8.568;2023-02-19T11:26:12;10.00;99.90
44305;DHT22;30019;50.576;8.568;2023-02-19T11:28:40;10.00;99.90
44305;DHT22;30019;50.576;8.568;2023-02-19T11:31:33;10.20;99.90
44305;DHT22;30019;50.576;8.568;2023-02-19T11:36:29;10.70;99.90
44305;DHT22;30019;50.576;8.568;2023-02-19T11:38:57;10.70;99.90
44305;DHT22;30019;50.576;8.568;2023-02-19T11:49:51;10.30;99.90
44305;DHT22;30019;50.576;8.568;2023-02-19T11:52:29;10.20;99.90
44305;DHT22;30019;50.576;8.568;2023-02-19T12:02:53;10.70;99.90
44305;DHT22;30019;50.576;8.568;2023-02-19T12:05:55;10.60;99.90
44305;DHT22;30019;50.576;8.568;2023-02-19T12:08:38;10.70;99.90
44305;DHT22;30019;50.576;8.568;2023-02-19T12:14:22;10.60;99.90
44305;DHT22;30019;50.576;8.568;2023-02-19T12:16:59;10.70;99.90
44305;DHT22;30019;50.576;8.568;2023-02-19T12:22:29;10.60;99.90
44305;DHT22;30019;50.576;8.568;2023-02-19T12:28:28;10.90;99.90
44305;DHT22;30019;50.576;8.568;2023-02-19T12:34:15;10.80;99.90
44305;DHT22;30019;50.576;8.568;2023-02-19T12:42:27;10.60;99.90
44305;DHT22;30019;50.576;8.568;2023-02-19T12:45:05;10.40;99.90
44305;DHT22;30019;50.576;8.568;2023-02-19T12:47:38;10.30;99.90
44305;DHT22;30019;50.576;8.568;2023-02-19T12:50:15;10.50;99.90
44305;DHT22;30019;50.576;8.568;2023-02-19T12:52:47;10.70;99.90
44305;DHT22;30019;50.576;8.568;2023-02-19T12:55:26;10.90;99.90
44305;DHT22;30019;50.576;8.568;2023-02-19T12:57:53;11.10;99.90
44305;DHT22;30019;50.576;8.568;2023-02-19T13:00:27;10.90;99.90
44305;DHT22;30019;50.576;8.568;2023-02-19T13:10:45;10.00;99.90
44305;DHT22;30019;50.576;8.568;2023-02-19T13:16:09;9.90;99.90
44305;DHT22;30019;50.576;8.568;2023-02-19T13:18:58;9.90;99.90
44305;DHT22;30019;50.576;8.568;2023-02-19T13:21:30;9.90;99.90
44305;DHT22;30019;50.576;8.568;2023-02-19T13:24:24;9.90;99.90
44305;DHT22;30019;50.576;8.568;2023-02-19T13:37:53;10.10;99.90
44305;DHT22;30019;50.576;8.568;2023-02-19T13:40:40;10.20;99.90
44305;DHT22;30019;50.576;8.568;2023-02-19T13:43:40;10.20;99.90
44305;DHT22;30019;50.576;8.568;2023-02-19T13:46:09;10.30;99.90
44305;DHT22;30019;50.576;8.568;2023-02-19T13:48:36;10.40;99.90
44305;DHT22;30019;50.576;8.568;2023-02-19T13:59:22;10.60;99.90
44305;DHT22;30019;50.576;8.568;2023-02-19T14:14:42;10.50;99.90
44305;DHT22;30019;50.576;8.568;2023-02-19T14:19:48;10.50;99.90
44305;DHT22;30019;50.576;8.568;2023-02-19T14:28:22;10.30;99.90
44305;DHT22;30019;50.576;8.568;2023-02-19T14:33:17;9.80;99.90
44305;DHT22;30019;50.576;8.568;2023-02-19T14:35:46;9.70;99.90
44305;DHT22;30019;50.576;8.568;2023-02-19T14:38:20;9.70;99.90
44305;DHT22;30019;50.576;8.568;2023-02-19T14:40:47;9.70;99.90
44305;DHT22;30019;50.576;8.568;2023-02-19T14:43:16;9.70;99.90
44305;DHT22;30019;50.576;8.568;2023-02-19T14:45:55;9.70;99.90
44305;DHT22;30019;50.576;8.568;2023-02-19T14:48:37;9.70;99.90
44305;DHT22;30019;50.576;8.568;2023-02-19T14:51:07;9.60;99.90
44305;DHT22;30019;50.576;8.568;2023-02-19T14:53:38;9.60;99.90
44305;DHT22;30019;50.576;8.568;2023-02-19T14:56:13;9.60;99.90
44305;DHT22;30019;50.576;8.568;2023-02-19T14:58:40;9.60;99.90
44305;DHT22;30019;50.576;8.568;2023-02-19T15:01:12;9.40;99.90
44305;DHT22;30019;50.576;8.568;2023-02-19T15:03:52;9.40;99.90
44305;DHT22;30019;50.576;8.568;2023-02-19T15:06:18;9.40;99.90
44305;DHT22;30019;50.576;8.568;2023-02-19T15:08:46;9.40;99.90
44305;DHT22;30019;50.576;8.568;2023-02-19T15:11:19;9.50;99.90
44305;DHT22;30019;50.576;8.568;2023-02-19T15:13:54;9.50;99.90
44305;DHT22;30019;50.576;8.568;2023-02-19T15:16:23;9.50;99.90
44305;DHT22;30019;50.576;8.568;2023-02-19T15:18:50;9.50;99.90
44305;DHT22;30019;50.576;8.568;2023-02-19T15:21:37;9.50;99.90
44305;DHT22;30019;50.576;8.568;2023-02-19T15:24:04;9.60;99.90
44305;DHT22;30019;50.576;8.568;2023-02-19T15:26:34;9.60;99.90
44305;DHT22;30019;50.576;8.568;2023-02-19T15:29:03;9.50;99.90
44305;DHT22;30019;50.576;8.568;2023-02-19T15:31:29;9.50;99.90
44305;DHT22;30019;50.576;8.568;2023-02-19T15:33:54;9.50;99.90
44305;DHT22;30019;50.576;8.568;2023-02-19T15:36:31;9.40;99.90
44305;DHT22;30019;50.576;8.568;2023-02-19T15:39:00;9.40;99.90
44305;DHT22;30019;50.576;8.568;2023-02-19T15:41:31;9.50;99.90
44305;DHT22;30019;50.576;8.568;2023-02-19T15:46:33;9.50;99.90
44305;DHT22;30019;50.576;8.568;2023-02-19T15:49:05;9.40;99.90
44305;DHT22;30019;50.576;8.568;2023-02-19T15:51:41;9.40;99.90
44305;DHT22;30019;50.576;8.568;2023-02-19T15:56:50;9.30;99.90
44305;DHT22;30019;50.576;8.568;2023-02-19T15:59:24;9.30;99.90
44305;DHT22;30019;50.576;8.568;2023-02-19T16:01:51;9.30;99.90
44305;DHT22;30019;50.576;8.568;2023-02-19T16:04:17;9.20;99.90
44305;DHT22;30019;50.576;8.568;2023-02-19T16:09:22;9.20;99.90
44305;DHT22;30019;50.576;8.568;2023-02-19T16:11:54;9.10;99.90
44305;DHT22;30019;50.576;8.568;2023-02-19T16:14:31;9.10;99.90
44305;DHT22;30019;50.576;8.568;2023-02-19T16:19:55;9.10;99.90
44305;DHT22;30019;50.576;8.568;2023-02-19T16:22:28;9.10;99.90
44305;DHT22;30019;50.576;8.568;2023-02-19T16:25:00;9.10;99.90
44305;DHT22;30019;50.576;8.568;2023-02-19T16:27:40;9.10;99.90
44305;DHT22;30019;50.576;8.568;2023-02-19T16:35:57;9.10;99.90
44305;DHT22;30019;50.576;8.568;2023-02-19T16:38:23;9.10;99.90
44305;DHT22;30019;50.576;8.568;2023-02-19T16:43:30;9.00;99.90
44305;DHT22;30019;50.576;8.568;2023-02-19T16:46:01;9.00;99.90
44305;DHT22;30019;50.576;8.568;2023-02-19T16:48:27;9.00;99.90
44305;DHT22;30019;50.576;8.568;2023-02-19T16:50:53;8.90;99.90
44305;DHT22;30019;50.576;8.568;2023-02-19T16:53:21;8.90;99.90
44305;DHT22;30019;50.576;8.568;2023-02-19T16:55:49;8.90;99.90
44305;DHT22;30019;50.576;8.568;2023-02-19T16:58:15;8.80;99.90
44305;DHT22;30019;50.576;8.568;2023-02-19T17:00:41;8.80;99.90
44305;DHT22;30019;50.576;8.568;2023-02-19T17:03:09;8.80;99.90
44305;DHT22;30019;50.576;8.568;2023-02-19T17:05:37;8.80;99.90
44305;DHT22;30019;50.576;8.568;2023-02-19T17:10:53;8.80;99.90
44305;DHT22;30019;50.576;8.568;2023-02-19T17:13:18;8.80;99.90
44305;DHT22;30019;50.576;8.568;2023-02-19T17:15:44;8.70;99.90
44305;DHT22;30019;50.576;8.568;2023-02-19T17:18:10;8.80;99.90
44305;DHT22;30019;50.576;8.568;2023-02-19T17:20:37;8.70;99.90
44305;DHT22;30019;50.576;8.568;2023-02-19T17:23:03;8.70;99.90
44305;DHT22;30019;50.576;8.568;2023-02-19T17:25:29;8.70;99.90
44305;DHT22;30019;50.576;8.568;2023-02-19T17:27:54;8.70;99.90
44305;DHT22;30019;50.576;8.568;2023-02-19T17:30:32;8.70;99.90
44305;DHT22;30019;50.576;8.568;2023-02-19T17:32:58;8.70;99.90
44305;DHT22;30019;50.576;8.568;2023-02-19T17:35:24;8.70;99.90
44305;DHT22;30019;50.576;8.568;2023-02-19T17:37:50;8.70;99.90
44305;DHT22;30019;50.576;8.568;2023-02-19T17:42:46;8.70;99.90
44305;DHT22;30019;50.576;8.568;2023-02-19T17:45:12;8.70;99.90
44305;DHT22;30019;50.576;8.568;2023-02-19T17:47:37;8.70;99.90
44305;DHT22;30019;50.576;8.568;2023-02-19T17:50:03;8.60;99.90
44305;DHT22;30019;50.576;8.568;2023-02-19T17:52:31;8.60;99.90
44305;DHT22;30019;50.576;8.568;2023-02-19T17:54:57;8.60;99.90
44305;DHT22;30019;50.576;8.568;2023-02-19T17:57:22;8.60;99.90
44305;DHT22;30019;50.576;8.568;2023-02-19T17:59:48;8.60;99.90
44305;DHT22;30019;50.576;8.568;2023-02-19T18:02:13;8.60;99.90
44305;DHT22;30019;50.576;8.568;2023-02-19T18:04:39;8.60;99.90
44305;DHT22;30019;50.576;8.568;2023-02-19T18:07:04;8.60;99.90
44305;DHT22;30019;50.576;8.568;2023-02-19T18:09:30;8.50;99.90
44305;DHT22;30019;50.576;8.568;2023-02-19T18:11:56;8.40;99.90
44305;DHT22;30019;50.576;8.568;2023-02-19T18:14:21;8.40;99.90
44305;DHT22;30019;50.576;8.568;2023-02-19T18:16:47;8.50;99.90
44305;DHT22;30019;50.576;8.568;2023-02-19T18:19:13;8.50;99.90
44305;DHT22;30019;50.576;8.568;2023-02-19T18:21:39;8.50;99.90
44305;DHT22;30019;50.576;8.568;2023-02-19T18:24:05;8.50;99.90
44305;DHT22;30019;50.576;8.568;2023-02-19T18:26:30;8.40;99.90
44305;DHT22;30019;50.576;8.568;2023-02-19T18:28:57;8.40;99.90
44305;DHT22;30019;50.576;8.568;2023-02-19T18:31:23;8.40;99.90
44305;DHT22;30019;50.576;8.568;2023-02-19T18:33:48;8.40;99.90
44305;DHT22;30019;50.576;8.568;2023-02-19T18:36:14;8.40;99.90
44305;DHT22;30019;50.576;8.568;2023-02-19T18:38:40;8.40;99.90
44305;DHT22;30019;50.576;8.568;2023-02-19T18:41:10;8.40;99.90
44305;DHT22;30019;50.576;8.568;2023-02-19T18:43:36;8.50;99.90